createdAt,value
2023-05-19T00:01:57.056Z,59.62
2023-05-19T00:04:32.096Z,59.56
2023-05-19T00:07:08.650Z,59.66
2023-05-19T00:09:43.364Z,59.71
2023-05-19T00:12:19.522Z,59.85
2023-05-19T00:14:54.433Z,59.98
2023-05-19T00:17:28.823Z,60.17
2023-05-19T00:20:08.196Z,60.20
2023-05-19T00:22:44.444Z,60.37
2023-05-19T00:25:18.356Z,60.48
2023-05-19T00:27:52.183Z,60.51
2023-05-19T00:30:26.101Z,60.43
2023-05-19T00:32:59.975Z,60.57
2023-05-19T00:35:33.691Z,60.70
2023-05-19T00:38:07.481Z,60.64
2023-05-19T00:40:41.466Z,60.58
2023-05-19T00:43:16.040Z,60.54
2023-05-19T00:45:50.104Z,60.32
2023-05-19T00:48:23.698Z,60.30
2023-05-19T00:51:02.719Z,60.06
2023-05-19T00:53:37.568Z,60.22
2023-05-19T00:56:11.528Z,60.11
2023-05-19T00:58:45.654Z,60.40
2023-05-19T01:01:21.831Z,60.33
2023-05-19T01:03:59.554Z,60.47
2023-05-19T01:06:33.992Z,60.54
2023-05-19T01:09:08.003Z,60.58
2023-05-19T01:11:41.630Z,60.70
2023-05-19T01:14:16.111Z,60.83
2023-05-19T01:16:56.953Z,60.99
2023-05-19T01:19:53.119Z,61.14
2023-05-19T01:22:55.687Z,61.24
2023-05-19T01:25:54.288Z,61.32
2023-05-19T01:28:33.666Z,61.29
2023-05-19T01:31:09.109Z,61.42
2023-05-19T01:33:45.109Z,61.61
2023-05-19T01:36:20.908Z,61.57
2023-05-19T01:38:57.710Z,61.62
2023-05-19T01:41:32.971Z,61.47
2023-05-19T01:44:07.000Z,61.67
2023-05-19T01:46:41.467Z,61.77
2023-05-19T01:49:15.254Z,61.79
2023-05-19T01:51:52.446Z,61.85
2023-05-19T01:54:26.475Z,61.87
2023-05-19T01:57:07.577Z,61.86
2023-05-19T01:59:54.156Z,61.96
2023-05-19T02:02:45.111Z,62.10
2023-05-19T02:05:30.217Z,62.24
2023-05-19T02:08:13.511Z,62.37
2023-05-19T02:10:53.663Z,62.48
2023-05-19T02:13:31.258Z,62.52
2023-05-19T02:16:07.688Z,62.58
2023-05-19T02:18:46.185Z,62.77
2023-05-19T02:21:19.976Z,62.83
2023-05-19T02:23:54.422Z,62.86
2023-05-19T02:26:27.940Z,63.05
2023-05-19T02:29:01.965Z,63.17
2023-05-19T02:31:35.443Z,63.17
2023-05-19T02:34:09.169Z,63.21
2023-05-19T02:36:44.759Z,63.47
2023-05-19T02:39:19.153Z,63.46
2023-05-19T02:41:54.210Z,63.56
2023-05-19T02:44:28.016Z,63.63
2023-05-19T02:47:02.266Z,63.72
2023-05-19T02:49:36.655Z,63.87
2023-05-19T02:52:10.666Z,63.86
2023-05-19T02:54:44.736Z,63.82
2023-05-19T02:57:18.581Z,63.93
2023-05-19T02:59:52.775Z,64.02
2023-05-19T03:02:26.590Z,64.18
2023-05-19T03:05:05.707Z,64.29
2023-05-19T03:07:39.412Z,64.23
2023-05-19T03:10:14.100Z,64.33
2023-05-19T03:12:47.823Z,64.33
2023-05-19T03:15:23.615Z,64.32
2023-05-19T03:17:57.445Z,64.53
2023-05-19T03:20:32.313Z,64.65
2023-05-19T03:23:05.760Z,64.82
2023-05-19T03:25:39.766Z,64.91
2023-05-19T03:28:13.210Z,65.03
2023-05-19T03:30:49.610Z,65.31
2023-05-19T03:33:28.412Z,65.49
2023-05-19T03:36:02.678Z,65.62
2023-05-19T03:38:38.900Z,65.73
2023-05-19T03:41:12.750Z,65.80
2023-05-19T03:43:46.816Z,65.85
2023-05-19T03:46:21.596Z,65.99
2023-05-19T03:48:58.932Z,65.97
2023-05-19T03:52:03.758Z,66.12
2023-05-19T03:54:43.099Z,66.15
2023-05-19T03:57:17.040Z,66.08
2023-05-19T03:59:50.576Z,66.16
2023-05-19T04:02:24.286Z,66.03
2023-05-19T04:04:58.325Z,66.02
2023-05-19T04:07:31.997Z,65.94
2023-05-19T04:10:08.367Z,66.27
2023-05-19T04:12:42.470Z,66.27
2023-05-19T04:15:16.577Z,66.51
2023-05-19T04:17:50.447Z,66.63
2023-05-19T04:20:25.298Z,66.57
2023-05-19T04:22:59.152Z,66.72
2023-05-19T04:25:33.954Z,66.87
2023-05-19T04:28:08.098Z,66.72
2023-05-19T04:30:42.993Z,66.92
2023-05-19T04:33:16.845Z,67.03
2023-05-19T04:35:52.053Z,67.22
2023-05-19T04:38:26.481Z,67.33
2023-05-19T04:41:02.202Z,67.02
2023-05-19T04:43:36.155Z,67.11
2023-05-19T04:46:13.252Z,67.19
2023-05-19T04:48:48.026Z,67.44
2023-05-19T04:51:21.809Z,67.51
2023-05-19T04:53:56.048Z,67.64
2023-05-19T04:56:30.389Z,67.35
2023-05-19T04:59:04.091Z,67.46
2023-05-19T05:01:41.497Z,67.44
2023-05-19T05:04:15.548Z,67.42
2023-05-19T05:06:49.253Z,67.33
2023-05-19T05:09:24.738Z,67.28
2023-05-19T05:12:00.040Z,67.52
2023-05-19T05:14:35.288Z,67.57
2023-05-19T05:17:12.399Z,67.73
2023-05-19T05:19:47.428Z,67.76
2023-05-19T05:22:22.555Z,68.09
2023-05-19T05:24:57.779Z,68.04
2023-05-19T05:27:31.646Z,67.80
2023-05-19T05:30:05.890Z,67.93
2023-05-19T05:32:39.876Z,68.19
2023-05-19T05:35:16.670Z,68.04
2023-05-19T05:37:51.281Z,68.27
2023-05-19T05:40:25.323Z,68.51
2023-05-19T05:42:59.787Z,68.31
2023-05-19T05:45:35.936Z,68.28
2023-05-19T05:48:12.420Z,68.57
2023-05-19T05:50:47.197Z,68.87
2023-05-19T05:53:27.023Z,69.19
2023-05-19T05:56:02.308Z,69.09
2023-05-19T05:58:44.368Z,68.94
2023-05-19T06:01:18.296Z,68.81
2023-05-19T06:04:03.909Z,68.48
2023-05-19T06:06:39.373Z,68.43
2023-05-19T06:09:13.333Z,68.57
2023-05-19T06:11:46.875Z,68.29
2023-05-19T06:14:20.721Z,68.19
2023-05-19T06:17:11.917Z,67.95
2023-05-19T06:19:48.142Z,67.74
2023-05-19T06:22:22.371Z,67.74
2023-05-19T06:25:00.170Z,67.77
2023-05-19T06:27:34.813Z,68.09
2023-05-19T06:30:11.363Z,68.13
2023-05-19T06:32:54.128Z,68.36
2023-05-19T06:35:28.417Z,68.13
2023-05-19T06:38:02.160Z,68.32
2023-05-19T06:40:37.301Z,68.49
2023-05-19T06:43:11.043Z,68.57
2023-05-19T06:46:00.500Z,68.73
2023-05-19T06:48:35.850Z,68.58
2023-05-19T06:51:11.069Z,68.54
2023-05-19T06:53:49.027Z,68.37
2023-05-19T06:57:12.094Z,68.27
2023-05-19T07:00:14.621Z,68.59
2023-05-19T07:03:09.114Z,68.54
2023-05-19T07:05:50.130Z,68.35
2023-05-19T07:09:02.832Z,68.18
2023-05-19T07:12:12.867Z,68.18
2023-05-19T07:15:22.826Z,68.41
2023-05-19T07:18:17.945Z,68.53
2023-05-19T07:21:24.534Z,68.86
2023-05-19T07:24:51.165Z,68.75
2023-05-19T07:27:25.702Z,68.88
2023-05-19T07:29:59.930Z,68.72
2023-05-19T07:32:33.909Z,68.55
2023-05-19T07:35:08.525Z,68.36
2023-05-19T07:37:42.409Z,68.73
2023-05-19T07:40:16.975Z,69.01
2023-05-19T07:42:51.849Z,68.94
2023-05-19T07:45:26.264Z,68.51
2023-05-19T07:48:00.293Z,68.50
2023-05-19T07:50:34.554Z,68.74
2023-05-19T07:53:08.276Z,68.82
2023-05-19T07:55:41.990Z,68.85
2023-05-19T07:58:16.036Z,69.01
2023-05-19T08:00:49.920Z,69.09
2023-05-19T08:03:24.316Z,68.75
2023-05-19T08:05:58.368Z,68.82
2023-05-19T08:08:33.817Z,68.87
2023-05-19T08:11:08.367Z,69.04
2023-05-19T08:13:42.864Z,68.91
2023-05-19T08:16:16.700Z,68.92
2023-05-19T08:18:50.570Z,68.81
2023-05-19T08:21:24.209Z,68.98
2023-05-19T08:23:58.276Z,68.99
2023-05-19T08:26:32.061Z,68.77
2023-05-19T08:29:05.927Z,68.88
2023-05-19T08:31:39.811Z,68.70
2023-05-19T08:34:13.507Z,68.77
2023-05-19T08:36:48.089Z,68.85
2023-05-19T08:39:27.333Z,68.97
2023-05-19T08:42:00.931Z,68.99
2023-05-19T08:44:35.045Z,69.04
2023-05-19T08:47:14.434Z,69.17
2023-05-19T08:49:54.419Z,69.31
2023-05-19T08:52:34.729Z,68.96
2023-05-19T08:55:17.978Z,69.10
2023-05-19T08:57:52.860Z,69.27
2023-05-19T09:00:27.398Z,69.07
2023-05-19T09:05:40.556Z,69.08
2023-05-19T09:08:15.121Z,69.04
2023-05-19T09:10:49.185Z,68.98
2023-05-19T09:13:23.097Z,68.91
2023-05-19T09:15:58.079Z,68.95
2023-05-19T09:18:32.227Z,68.67
2023-05-19T09:21:06.313Z,68.48
2023-05-19T09:23:41.027Z,68.50
2023-05-19T09:26:16.914Z,68.52
2023-05-19T09:28:50.993Z,68.27
2023-05-19T09:31:24.592Z,67.93
2023-05-19T09:33:58.323Z,67.67
2023-05-19T09:36:32.897Z,67.72
2023-05-19T09:39:16.972Z,67.69
2023-05-19T09:41:53.173Z,67.93
2023-05-19T09:44:29.950Z,68.01
2023-05-19T09:47:03.903Z,67.97
2023-05-19T09:49:37.631Z,67.90
2023-05-19T09:52:12.713Z,67.56
2023-05-19T09:54:48.795Z,67.61
2023-05-19T09:57:30.096Z,67.37
2023-05-19T10:00:04.394Z,67.40
2023-05-19T10:02:38.662Z,67.18
2023-05-19T10:05:17.645Z,67.00
2023-05-19T10:07:54.872Z,67.13
2023-05-19T10:10:30.394Z,66.95
2023-05-19T10:13:05.863Z,66.96
2023-05-19T10:15:50.063Z,67.11
2023-05-19T10:18:32.684Z,67.08
2023-05-19T10:21:07.926Z,66.85
2023-05-19T10:23:42.332Z,66.63
2023-05-19T10:26:17.074Z,66.81
2023-05-19T10:28:52.343Z,67.24
2023-05-19T10:31:27.583Z,67.21
2023-05-19T10:34:26.024Z,66.84
2023-05-19T10:37:10.585Z,66.71
2023-05-19T10:39:46.000Z,66.48
2023-05-19T10:42:28.274Z,66.11
2023-05-19T10:45:15.321Z,65.91
2023-05-19T10:47:52.082Z,66.16
2023-05-19T10:50:25.934Z,66.21
2023-05-19T10:53:00.553Z,65.70
2023-05-19T10:55:53.225Z,65.29
2023-05-19T10:58:52.613Z,65.12
2023-05-19T11:01:32.546Z,64.97
2023-05-19T11:04:14.391Z,64.84
2023-05-19T11:06:54.380Z,64.68
2023-05-19T11:09:37.983Z,64.76
2023-05-19T11:12:14.752Z,64.79
2023-05-19T11:14:48.917Z,64.31
2023-05-19T11:17:24.146Z,64.11
2023-05-19T11:19:59.713Z,64.00
2023-05-19T11:22:36.337Z,63.84
2023-05-19T11:25:11.163Z,63.77
2023-05-19T11:27:48.343Z,64.05
2023-05-19T11:30:22.278Z,64.05
2023-05-19T11:32:58.343Z,64.05
2023-05-19T11:35:36.284Z,63.75
2023-05-19T11:38:10.511Z,63.66
2023-05-19T11:40:45.862Z,63.49
2023-05-19T11:43:19.855Z,63.34
2023-05-19T11:45:55.224Z,63.28
2023-05-19T11:48:31.610Z,63.35
2023-05-19T11:51:05.865Z,63.32
2023-05-19T11:53:39.337Z,63.14
2023-05-19T11:56:15.548Z,62.70
2023-05-19T11:58:49.598Z,63.03
2023-05-19T12:01:27.498Z,63.47
2023-05-19T12:04:01.344Z,63.25
2023-05-19T12:06:35.841Z,63.12
2023-05-19T12:09:11.410Z,63.14
2023-05-19T12:11:45.265Z,63.04
2023-05-19T12:14:19.168Z,62.88
2023-05-19T12:16:53.263Z,62.57
2023-05-19T12:19:28.252Z,62.69
2023-05-19T12:22:03.477Z,62.71
2023-05-19T12:24:39.040Z,62.90
2023-05-19T12:27:20.779Z,62.78
2023-05-19T12:29:55.603Z,62.50
2023-05-19T12:32:30.351Z,62.59
2023-05-19T12:35:06.641Z,62.72
2023-05-19T12:37:43.267Z,62.55
2023-05-19T12:40:18.819Z,62.41
2023-05-19T12:42:59.227Z,62.57
2023-05-19T12:45:38.881Z,62.62
2023-05-19T12:48:17.433Z,62.58
2023-05-19T12:50:53.585Z,62.86
2023-05-19T12:53:29.997Z,62.90
2023-05-19T12:56:03.872Z,62.50
2023-05-19T12:58:39.352Z,62.47
2023-05-19T13:01:20.640Z,62.61
2023-05-19T13:03:55.121Z,62.45
2023-05-19T13:06:29.593Z,62.37
2023-05-19T13:09:03.571Z,62.43
2023-05-19T13:11:36.918Z,62.30
2023-05-19T13:14:10.871Z,62.37
2023-05-19T13:16:44.602Z,62.42
2023-05-19T13:21:57.832Z,62.60
2023-05-19T13:24:31.461Z,62.65
2023-05-19T13:27:06.057Z,62.37
2023-05-19T13:29:39.878Z,62.34
2023-05-19T13:32:13.643Z,62.51
2023-05-19T13:34:47.628Z,62.39
2023-05-19T13:37:21.585Z,62.47
2023-05-19T13:39:55.824Z,62.44
2023-05-19T13:42:29.648Z,62.37
2023-05-19T13:45:03.137Z,62.30
2023-05-19T13:47:36.856Z,62.29
2023-05-19T13:50:11.498Z,62.62
2023-05-19T13:52:45.719Z,62.79
2023-05-19T13:55:19.843Z,62.66
2023-05-19T13:57:54.093Z,62.52
2023-05-19T14:00:28.841Z,62.54
2023-05-19T14:03:02.675Z,62.72
2023-05-19T14:05:37.701Z,62.79
2023-05-19T14:08:12.817Z,62.80
2023-05-19T14:10:47.547Z,63.02
2023-05-19T14:13:32.578Z,63.04
2023-05-19T14:16:10.175Z,63.11
2023-05-19T14:18:44.125Z,63.07
2023-05-19T14:21:18.312Z,63.12
2023-05-19T14:23:51.874Z,63.16
2023-05-19T14:26:28.069Z,63.10
2023-05-19T14:29:04.737Z,63.32
2023-05-19T14:31:39.095Z,63.26
2023-05-19T14:34:13.110Z,63.32
2023-05-19T14:36:47.193Z,63.31
2023-05-19T14:39:21.521Z,63.42
2023-05-19T14:41:56.584Z,63.54
2023-05-19T14:44:34.413Z,63.61
2023-05-19T14:47:11.914Z,63.69
2023-05-19T14:49:46.021Z,63.49
2023-05-19T14:52:20.212Z,63.66
2023-05-19T14:54:53.951Z,63.85
2023-05-19T14:57:28.054Z,63.86
2023-05-19T15:00:02.089Z,63.89
2023-05-19T15:02:35.837Z,63.94
2023-05-19T15:05:12.105Z,63.89
2023-05-19T15:07:49.479Z,63.87
2023-05-19T15:10:24.711Z,63.89
2023-05-19T15:12:59.916Z,63.92
2023-05-19T15:15:34.399Z,63.69
2023-05-19T15:18:08.763Z,63.59
2023-05-19T15:20:42.866Z,63.80
2023-05-19T15:23:16.811Z,64.03
2023-05-19T15:25:51.353Z,63.85
2023-05-19T15:28:27.229Z,63.67
2023-05-19T15:31:00.967Z,63.83
2023-05-19T15:33:34.738Z,64.08
2023-05-19T15:36:09.195Z,64.19
2023-05-19T15:38:42.672Z,64.26
2023-05-19T15:41:16.621Z,64.41
2023-05-19T15:43:50.575Z,64.53
2023-05-19T15:46:24.213Z,64.49
2023-05-19T15:48:58.221Z,64.62
2023-05-19T15:51:32.151Z,64.73
2023-05-19T15:54:05.834Z,64.93
2023-05-19T15:56:39.794Z,64.97
2023-05-19T15:59:13.576Z,65.06
2023-05-19T16:01:47.627Z,64.87
2023-05-19T16:04:21.995Z,65.01
2023-05-19T16:06:55.698Z,65.09
2023-05-19T16:09:29.672Z,65.03
2023-05-19T16:12:03.597Z,64.93
2023-05-19T16:14:38.220Z,65.06
2023-05-19T16:17:14.161Z,65.04
2023-05-19T16:19:48.501Z,65.09
2023-05-19T16:22:25.331Z,65.24
2023-05-19T16:24:58.891Z,65.34
2023-05-19T16:27:33.050Z,65.45
2023-05-19T16:30:07.648Z,65.39
2023-05-19T16:32:41.310Z,65.46
2023-05-19T16:35:15.670Z,65.47
2023-05-19T16:37:49.639Z,65.54
2023-05-19T16:40:23.100Z,65.34
2023-05-19T16:42:57.643Z,65.38
2023-05-19T16:45:31.702Z,65.42
2023-05-19T16:48:05.372Z,65.44
2023-05-19T16:50:40.035Z,65.55
2023-05-19T16:53:13.648Z,65.69
2023-05-19T16:55:47.727Z,65.68
2023-05-19T16:58:21.265Z,65.79
2023-05-19T17:00:58.816Z,65.90
2023-05-19T17:03:32.731Z,65.91
2023-05-19T17:06:06.508Z,66.04
2023-05-19T17:08:40.168Z,65.95
2023-05-19T17:11:14.039Z,66.04
2023-05-19T17:13:47.855Z,66.03
2023-05-19T17:16:22.027Z,66.01
2023-05-19T17:18:56.341Z,66.13
2023-05-19T17:21:29.745Z,66.18
2023-05-19T17:24:03.848Z,66.19
2023-05-19T17:26:37.823Z,66.32
2023-05-19T17:29:11.841Z,66.35
2023-05-19T17:31:45.651Z,66.35
2023-05-19T17:34:19.534Z,66.41
2023-05-19T17:36:53.427Z,66.48
2023-05-19T17:39:27.266Z,66.53
2023-05-19T17:42:01.030Z,66.46
2023-05-19T17:44:35.054Z,66.51
2023-05-19T17:47:08.958Z,66.52
2023-05-19T17:49:43.126Z,66.60
2023-05-19T17:52:19.670Z,66.71
2023-05-19T17:54:54.833Z,66.68
2023-05-19T17:57:31.757Z,66.86
2023-05-19T18:00:06.951Z,66.94
2023-05-19T18:02:44.502Z,66.95
2023-05-19T18:05:21.063Z,67.11
2023-05-19T18:07:55.959Z,67.03
2023-05-19T18:10:32.091Z,67.07
2023-05-19T18:13:06.167Z,66.94
2023-05-19T18:15:40.252Z,67.02
2023-05-19T18:18:14.128Z,66.98
2023-05-19T18:20:48.647Z,67.08
2023-05-19T18:23:22.567Z,67.14
2023-05-19T18:25:56.232Z,67.25
2023-05-19T18:28:30.517Z,67.29
2023-05-19T18:31:05.885Z,67.23
2023-05-19T18:33:39.414Z,67.40
2023-05-19T18:36:13.868Z,67.54
2023-05-19T18:38:48.317Z,67.54
2023-05-19T18:41:22.010Z,67.56
2023-05-19T18:43:56.189Z,67.62
2023-05-19T18:46:30.352Z,67.66
2023-05-19T18:49:04.994Z,67.53
2023-05-19T18:51:38.964Z,67.66
2023-05-19T18:54:12.912Z,67.70
2023-05-19T18:56:46.648Z,67.71
2023-05-19T18:59:20.952Z,67.74
2023-05-19T19:01:55.683Z,67.84
2023-05-19T19:04:30.133Z,67.87
2023-05-19T19:07:04.454Z,68.00
2023-05-19T19:09:37.957Z,67.97
2023-05-19T19:12:12.013Z,67.95
2023-05-19T19:14:46.373Z,68.04
2023-05-19T19:17:20.427Z,68.07
2023-05-19T19:19:54.459Z,68.17
2023-05-19T19:22:28.673Z,68.09
2023-05-19T19:25:02.881Z,68.22
2023-05-19T19:27:36.801Z,68.19
2023-05-19T19:30:13.048Z,68.25
2023-05-19T19:32:47.280Z,68.32
2023-05-19T19:35:21.329Z,68.35
2023-05-19T19:37:55.160Z,68.56
2023-05-19T19:40:29.739Z,68.55
2023-05-19T19:43:03.645Z,68.59
2023-05-19T19:45:39.696Z,68.66
2023-05-19T19:48:14.183Z,68.71
2023-05-19T19:50:53.465Z,68.85
2023-05-19T19:53:27.635Z,68.86
2023-05-19T19:56:02.984Z,68.85
2023-05-19T19:58:36.998Z,69.03
2023-05-19T20:01:10.482Z,69.04
2023-05-19T20:03:44.552Z,68.98
2023-05-19T20:06:18.777Z,69.10
2023-05-19T20:08:52.264Z,69.23
2023-05-19T20:11:27.174Z,69.24
2023-05-19T20:14:00.865Z,69.31
2023-05-19T20:16:34.738Z,69.44
2023-05-19T20:19:09.361Z,69.63
2023-05-19T20:21:43.290Z,69.56
2023-05-19T20:24:17.258Z,69.56
2023-05-19T20:26:50.874Z,69.61
2023-05-19T20:29:24.374Z,69.66
2023-05-19T20:31:58.237Z,69.75
2023-05-19T20:34:32.157Z,69.73
2023-05-19T20:37:06.284Z,69.76
2023-05-19T20:39:40.274Z,69.78
2023-05-19T20:42:14.329Z,69.85
2023-05-19T20:44:48.112Z,69.88
2023-05-19T20:47:21.828Z,69.99
2023-05-19T20:49:55.648Z,69.98
2023-05-19T20:52:29.318Z,70.03
2023-05-19T20:55:03.323Z,70.15
2023-05-19T20:57:37.582Z,70.17
2023-05-19T21:00:13.429Z,70.25
2023-05-19T21:02:47.119Z,70.26
2023-05-19T21:05:21.806Z,70.28
2023-05-19T21:07:55.903Z,70.50
2023-05-19T21:10:30.218Z,70.54
2023-05-19T21:13:04.373Z,70.67
2023-05-19T21:15:37.913Z,70.61
2023-05-19T21:18:12.262Z,70.64
2023-05-19T21:20:46.584Z,70.81
2023-05-19T21:23:20.715Z,70.90
2023-05-19T21:25:55.393Z,71.03
2023-05-19T21:28:29.401Z,70.97
2023-05-19T21:31:02.949Z,71.09
2023-05-19T21:33:37.594Z,71.14
2023-05-19T21:36:11.855Z,71.09
2023-05-19T21:38:45.441Z,71.18
2023-05-19T21:41:19.060Z,71.29
2023-05-19T21:43:52.736Z,71.28
2023-05-19T21:46:28.236Z,71.33
2023-05-19T21:49:01.997Z,71.46
2023-05-19T21:51:36.254Z,71.42
2023-05-19T21:54:10.491Z,71.48
2023-05-19T21:56:44.388Z,71.55
2023-05-19T21:59:18.535Z,71.62
2023-05-19T22:01:52.500Z,71.67
2023-05-19T22:04:27.474Z,71.66
2023-05-19T22:07:01.881Z,71.77
2023-05-19T22:09:35.857Z,71.71
2023-05-19T22:12:11.203Z,71.71
2023-05-19T22:14:45.062Z,71.67
2023-05-19T22:17:18.987Z,71.82
2023-05-19T22:19:52.971Z,71.74
2023-05-19T22:22:27.191Z,71.81
2023-05-19T22:25:00.880Z,71.95
2023-05-19T22:27:34.712Z,71.87
2023-05-19T22:30:10.044Z,71.92
2023-05-19T22:32:44.015Z,71.89
2023-05-19T22:35:18.160Z,72.07
2023-05-19T22:37:51.878Z,72.18
2023-05-19T22:40:25.821Z,72.10
2023-05-19T22:42:59.488Z,71.93
2023-05-19T22:45:33.426Z,71.86
2023-05-19T22:48:08.588Z,72.00
2023-05-19T22:50:42.542Z,71.98
2023-05-19T22:53:16.684Z,71.90
2023-05-19T22:55:50.418Z,71.85
2023-05-19T22:58:24.097Z,71.62
2023-05-19T23:00:57.947Z,71.69
2023-05-19T23:03:31.741Z,71.72
2023-05-19T23:06:05.594Z,71.76
2023-05-19T23:08:39.496Z,71.72
2023-05-19T23:11:13.005Z,71.71
2023-05-19T23:13:47.114Z,71.80
2023-05-19T23:16:21.033Z,71.78
2023-05-19T23:18:58.493Z,71.74
2023-05-19T23:21:42.930Z,71.92
2023-05-19T23:24:16.848Z,71.90
2023-05-19T23:26:51.087Z,71.82
2023-05-19T23:29:25.036Z,71.68
2023-05-19T23:31:58.644Z,71.71
2023-05-19T23:34:32.241Z,71.65
2023-05-19T23:37:06.214Z,71.56
2023-05-19T23:39:40.240Z,71.53
2023-05-19T23:42:14.327Z,71.53
2023-05-19T23:44:47.729Z,71.63
2023-05-19T23:47:21.832Z,71.44
2023-05-19T23:49:55.569Z,71.38
2023-05-19T23:52:29.597Z,71.30
2023-05-19T23:55:03.951Z,71.13
2023-05-19T23:57:38.265Z,71.05
